sensor_id;sensor_type;location;lat;lon;timestamp;pressure;altitude;pressure_sealevel;temperature;humidity
60019;BME280;45870;42.528;26.740;2023-02-13T00:00:20;101686.69;;;5.14;39.43
60019;BME280;45870;42.528;26.740;2023-02-13T00:02:46;101682.28;;;4.95;39.81
60019;BME280;45870;42.528;26.740;2023-02-13T00:05:12;101691.25;;;5.48;39.27
60019;BME280;45870;42.528;26.740;2023-02-13T00:07:38;101688.59;;;6.10;36.93
60019;BME280;45870;42.528;26.740;2023-02-13T00:10:04;101692.88;;;6.20;37.65
60019;BME280;45870;42.528;26.740;2023-02-13T00:12:29;101695.41;;;6.22;36.79
60019;BME280;45870;42.528;26.740;2023-02-13T00:14:55;101694.31;;;5.89;38.02
60019;BME280;45870;42.528;26.740;2023-02-13T00:17:21;101694.47;;;6.05;38.17
60019;BME280;45870;42.528;26.740;2023-02-13T00:19:46;101642.97;;;6.27;37.48
60019;BME280;45870;42.528;26.740;2023-02-13T00:22:12;101697.53;;;6.36;38.42
60019;BME280;45870;42.528;26.740;2023-02-13T00:24:41;101688.88;;;6.84;37.65
60019;BME280;45870;42.528;26.740;2023-02-13T00:27:06;101693.84;;;7.13;36.76
60019;BME280;45870;42.528;26.740;2023-02-13T00:29:32;101697.34;;;7.05;36.61
60019;BME280;45870;42.528;26.740;2023-02-13T00:31:57;101675.22;;;7.11;36.31
60019;BME280;45870;42.528;26.740;2023-02-13T00:34:24;101703.59;;;7.22;36.57
60019;BME280;45870;42.528;26.740;2023-02-13T00:36:49;101710.09;;;7.61;35.51
60019;BME280;45870;42.528;26.740;2023-02-13T00:39:15;101687.53;;;7.46;35.85
60019;BME280;45870;42.528;26.740;2023-02-13T00:41:41;101705.47;;;7.29;36.15
60019;BME280;45870;42.528;26.740;2023-02-13T00:44:08;101706.56;;;7.69;35.12
60019;BME280;45870;42.528;26.740;2023-02-13T00:46:34;101703.88;;;7.69;34.99
60019;BME280;45870;42.528;26.740;2023-02-13T00:49:00;101668.28;;;7.00;35.74
60019;BME280;45870;42.528;26.740;2023-02-13T00:51:26;101710.19;;;7.27;36.10
60019;BME280;45870;42.528;26.740;2023-02-13T00:53:52;101692.75;;;7.39;35.34
60019;BME280;45870;42.528;26.740;2023-02-13T00:56:18;101685.88;;;7.45;35.42
60019;BME280;45870;42.528;26.740;2023-02-13T00:58:44;101705.13;;;7.16;35.07
60019;BME280;45870;42.528;26.740;2023-02-13T01:01:10;101707.50;;;6.26;35.69
60019;BME280;45870;42.528;26.740;2023-02-13T01:03:36;101712.16;;;6.24;35.58
60019;BME280;45870;42.528;26.740;2023-02-13T01:06:02;101678.13;;;5.28;35.92
60019;BME280;45870;42.528;26.740;2023-02-13T01:08:27;101710.81;;;4.77;37.01
60019;BME280;45870;42.528;26.740;2023-02-13T01:10:53;101712.81;;;3.23;39.95
60019;BME280;45870;42.528;26.740;2023-02-13T01:13:19;101706.19;;;5.06;39.17
60019;BME280;45870;42.528;26.740;2023-02-13T01:15:46;101705.19;;;5.52;39.37
60019;BME280;45870;42.528;26.740;2023-02-13T01:18:13;101714.88;;;5.53;39.54
60019;BME280;45870;42.528;26.740;2023-02-13T01:20:40;101623.97;;;5.69;38.44
60019;BME280;45870;42.528;26.740;2023-02-13T01:23:06;101689.13;;;6.13;38.80
60019;BME280;45870;42.528;26.740;2023-02-13T01:25:32;101709.91;;;6.37;38.18
60019;BME280;45870;42.528;26.740;2023-02-13T01:27:58;101712.97;;;6.68;38.13
60019;BME280;45870;42.528;26.740;2023-02-13T01:30:24;101708.59;;;6.15;38.99
60019;BME280;45870;42.528;26.740;2023-02-13T01:32:49;101708.63;;;6.23;38.84
60019;BME280;45870;42.528;26.740;2023-02-13T01:35:15;101705.53;;;6.10;39.05
60019;BME280;45870;42.528;26.740;2023-02-13T01:37:41;101664.84;;;6.74;37.92
60019;BME280;45870;42.528;26.740;2023-02-13T01:40:11;101704.94;;;6.76;37.94
60019;BME280;45870;42.528;26.740;2023-02-13T01:42:37;101710.97;;;7.03;37.04
60019;BME280;45870;42.528;26.740;2023-02-13T01:45:22;101709.31;;;7.19;36.75
60019;BME280;45870;42.528;26.740;2023-02-13T01:48:10;101710.06;;;6.95;37.09
60019;BME280;45870;42.528;26.740;2023-02-13T01:50:41;101548.25;;;6.19;37.04
60019;BME280;45870;42.528;26.740;2023-02-13T01:53:13;101706.59;;;7.02;37.32
60019;BME280;45870;42.528;26.740;2023-02-13T01:55:49;101652.91;;;7.11;35.80
60019;BME280;45870;42.528;26.740;2023-02-13T01:58:21;101702.34;;;7.42;36.11
60019;BME280;45870;42.528;26.740;2023-02-13T02:00:48;101715.34;;;7.87;35.44
60019;BME280;45870;42.528;26.740;2023-02-13T02:03:57;101705.22;;;8.37;34.28
60019;BME280;45870;42.528;26.740;2023-02-13T02:06:30;101717.81;;;8.53;33.66
60019;BME280;45870;42.528;26.740;2023-02-13T02:09:00;101721.72;;;8.26;34.43
60019;BME280;45870;42.528;26.740;2023-02-13T02:11:37;101718.69;;;8.05;34.02
60019;BME280;45870;42.528;26.740;2023-02-13T02:14:05;101721.53;;;7.95;33.95
60019;BME280;45870;42.528;26.740;2023-02-13T02:16:31;101723.34;;;7.54;33.82
60019;BME280;45870;42.528;26.740;2023-02-13T02:19:00;101729.50;;;6.89;34.79
60019;BME280;45870;42.528;26.740;2023-02-13T02:21:55;101678.16;;;6.24;35.26
60019;BME280;45870;42.528;26.740;2023-02-13T02:27:28;101734.66;;;6.05;35.91
60019;BME280;45870;42.528;26.740;2023-02-13T02:38:49;101736.88;;;5.29;35.72
60019;BME280;45870;42.528;26.740;2023-02-13T02:44:18;101672.72;;;4.28;37.45
60019;BME280;45870;42.528;26.740;2023-02-13T02:49:34;101730.59;;;5.66;37.51
60019;BME280;45870;42.528;26.740;2023-02-13T02:52:30;101732.25;;;4.01;38.83
60019;BME280;45870;42.528;26.740;2023-02-13T02:57:39;101743.09;;;3.90;37.76
60019;BME280;45870;42.528;26.740;2023-02-13T03:00:27;101745.44;;;3.45;38.45
60019;BME280;45870;42.528;26.740;2023-02-13T03:03:17;101736.19;;;3.88;38.19
60019;BME280;45870;42.528;26.740;2023-02-13T03:06:03;101738.59;;;3.91;37.68
60019;BME280;45870;42.528;26.740;2023-02-13T03:08:40;101746.72;;;3.51;38.38
60019;BME280;45870;42.528;26.740;2023-02-13T03:11:25;101743.44;;;3.28;39.04
60019;BME280;45870;42.528;26.740;2023-02-13T03:14:27;101661.13;;;3.24;38.77
60019;BME280;45870;42.528;26.740;2023-02-13T03:16:54;101740.53;;;2.91;40.77
60019;BME280;45870;42.528;26.740;2023-02-13T03:23:12;101733.81;;;3.75;38.64
60019;BME280;45870;42.528;26.740;2023-02-13T03:26:04;101742.81;;;3.55;40.22
60019;BME280;45870;42.528;26.740;2023-02-13T03:31:43;101744.75;;;3.43;39.36
60019;BME280;45870;42.528;26.740;2023-02-13T03:34:20;101738.00;;;3.49;38.67
60019;BME280;45870;42.528;26.740;2023-02-13T03:36:55;101739.56;;;3.61;37.72
60019;BME280;45870;42.528;26.740;2023-02-13T03:40:05;101739.16;;;3.07;38.17
60019;BME280;45870;42.528;26.740;2023-02-13T03:42:38;101749.91;;;3.16;39.57
60019;BME280;45870;42.528;26.740;2023-02-13T03:45:11;101696.78;;;2.64;39.52
60019;BME280;45870;42.528;26.740;2023-02-13T03:47:59;101738.19;;;2.98;39.45
60019;BME280;45870;42.528;26.740;2023-02-13T03:50:26;101710.25;;;2.62;39.77
60019;BME280;45870;42.528;26.740;2023-02-13T03:53:01;101705.59;;;2.94;38.88
60019;BME280;45870;42.528;26.740;2023-02-13T03:55:34;101736.78;;;3.03;38.97
60019;BME280;45870;42.528;26.740;2023-02-13T04:01:07;101743.56;;;1.53;41.99
60019;BME280;45870;42.528;26.740;2023-02-13T04:06:30;101735.00;;;1.70;43.03
60019;BME280;45870;42.528;26.740;2023-02-13T04:08:57;101645.41;;;1.60;42.70
60019;BME280;45870;42.528;26.740;2023-02-13T04:14:06;101741.31;;;2.73;40.60
60019;BME280;45870;42.528;26.740;2023-02-13T04:16:40;101750.16;;;2.73;41.59
60019;BME280;45870;42.528;26.740;2023-02-13T04:19:07;101726.81;;;2.66;41.50
60019;BME280;45870;42.528;26.740;2023-02-13T04:21:38;101737.25;;;1.86;43.24
60019;BME280;45870;42.528;26.740;2023-02-13T04:24:08;101745.75;;;2.63;42.20
60019;BME280;45870;42.528;26.740;2023-02-13T04:26:36;101629.75;;;1.87;42.86
60019;BME280;45870;42.528;26.740;2023-02-13T04:29:03;101742.94;;;2.94;42.76
60019;BME280;45870;42.528;26.740;2023-02-13T04:31:29;101743.59;;;2.87;42.08
60019;BME280;45870;42.528;26.740;2023-02-13T04:33:55;101733.31;;;3.13;41.11
60019;BME280;45870;42.528;26.740;2023-02-13T04:36:20;101735.44;;;3.19;41.10
60019;BME280;45870;42.528;26.740;2023-02-13T04:38:46;101744.63;;;3.74;40.73
60019;BME280;45870;42.528;26.740;2023-02-13T04:41:12;101725.50;;;3.88;39.43
60019;BME280;45870;42.528;26.740;2023-02-13T04:43:37;101744.66;;;3.93;39.48
60019;BME280;45870;42.528;26.740;2023-02-13T04:46:03;101675.19;;;3.26;39.24
60019;BME280;45870;42.528;26.740;2023-02-13T04:48:29;101743.28;;;3.20;39.81
60019;BME280;45870;42.528;26.740;2023-02-13T04:50:55;101747.31;;;3.05;39.62
60019;BME280;45870;42.528;26.740;2023-02-13T04:53:20;101735.19;;;3.41;38.99
60019;BME280;45870;42.528;26.740;2023-02-13T04:55:46;101740.47;;;3.12;39.42
60019;BME280;45870;42.528;26.740;2023-02-13T04:58:12;101741.53;;;3.00;39.29
60019;BME280;45870;42.528;26.740;2023-02-13T05:00:38;101735.63;;;1.31;42.66
60019;BME280;45870;42.528;26.740;2023-02-13T05:03:06;101754.25;;;1.31;43.21
60019;BME280;45870;42.528;26.740;2023-02-13T05:05:33;101745.72;;;1.05;44.26
60019;BME280;45870;42.528;26.740;2023-02-13T05:08:00;101754.78;;;1.57;44.23
60019;BME280;45870;42.528;26.740;2023-02-13T05:10:26;101718.03;;;1.82;43.46
60019;BME280;45870;42.528;26.740;2023-02-13T05:12:52;101763.03;;;2.68;42.35
60019;BME280;45870;42.528;26.740;2023-02-13T05:15:18;101753.09;;;3.10;41.56
60019;BME280;45870;42.528;26.740;2023-02-13T05:17:44;101755.28;;;3.45;40.80
60019;BME280;45870;42.528;26.740;2023-02-13T05:20:12;101757.19;;;3.24;40.17
60019;BME280;45870;42.528;26.740;2023-02-13T05:22:49;101730.00;;;3.49;39.73
60019;BME280;45870;42.528;26.740;2023-02-13T05:25:34;101684.25;;;2.94;40.10
60019;BME280;45870;42.528;26.740;2023-02-13T05:28:00;101765.88;;;3.85;38.80
60019;BME280;45870;42.528;26.740;2023-02-13T05:30:25;101776.97;;;4.09;38.59
60019;BME280;45870;42.528;26.740;2023-02-13T05:32:51;101627.34;;;2.75;39.59
60019;BME280;45870;42.528;26.740;2023-02-13T05:35:21;101778.34;;;3.56;40.46
60019;BME280;45870;42.528;26.740;2023-02-13T05:37:47;101771.06;;;3.77;39.39
60019;BME280;45870;42.528;26.740;2023-02-13T05:40:13;101779.22;;;3.66;39.63
60019;BME280;45870;42.528;26.740;2023-02-13T05:42:40;101786.78;;;3.11;41.24
60019;BME280;45870;42.528;26.740;2023-02-13T05:45:07;101780.66;;;4.08;39.71
60019;BME280;45870;42.528;26.740;2023-02-13T05:47:34;101781.69;;;5.00;37.70
60019;BME280;45870;42.528;26.740;2023-02-13T05:49:59;101788.59;;;4.56;38.73
60019;BME280;45870;42.528;26.740;2023-02-13T05:52:25;101665.81;;;4.26;37.91
60019;BME280;45870;42.528;26.740;2023-02-13T05:54:51;101797.06;;;5.52;36.34
60019;BME280;45870;42.528;26.740;2023-02-13T05:57:17;101555.50;;;3.50;38.21
60019;BME280;45870;42.528;26.740;2023-02-13T05:59:43;101789.09;;;6.23;35.97
60019;BME280;45870;42.528;26.740;2023-02-13T06:02:08;101784.09;;;7.39;34.36
60019;BME280;45870;42.528;26.740;2023-02-13T06:04:34;101792.81;;;7.91;33.44
60019;BME280;45870;42.528;26.740;2023-02-13T06:07:00;101785.69;;;7.74;33.70
60019;BME280;45870;42.528;26.740;2023-02-13T06:09:25;101798.59;;;9.16;31.36
60019;BME280;45870;42.528;26.740;2023-02-13T06:11:51;101773.75;;;8.98;31.88
60019;BME280;45870;42.528;26.740;2023-02-13T06:14:16;101756.81;;;9.28;31.13
60019;BME280;45870;42.528;26.740;2023-02-13T06:16:42;101799.41;;;10.17;30.76
60019;BME280;45870;42.528;26.740;2023-02-13T06:19:08;101793.88;;;10.11;30.05
60019;BME280;45870;42.528;26.740;2023-02-13T06:21:34;101817.66;;;10.15;31.02
60019;BME280;45870;42.528;26.740;2023-02-13T06:24:07;101810.63;;;10.51;29.66
60019;BME280;45870;42.528;26.740;2023-02-13T06:26:33;101815.19;;;11.18;30.20
60019;BME280;45870;42.528;26.740;2023-02-13T06:28:59;101814.81;;;11.35;28.82
60019;BME280;45870;42.528;26.740;2023-02-13T06:31:24;101814.22;;;11.54;29.07
60019;BME280;45870;42.528;26.740;2023-02-13T06:33:50;101818.59;;;11.70;29.21
60019;BME280;45870;42.528;26.740;2023-02-13T06:36:16;101818.56;;;12.21;28.63
60019;BME280;45870;42.528;26.740;2023-02-13T06:38:41;101810.72;;;11.90;29.68
60019;BME280;45870;42.528;26.740;2023-02-13T06:41:07;101813.00;;;12.78;28.90
60019;BME280;45870;42.528;26.740;2023-02-13T06:43:33;101810.78;;;13.43;27.23
60019;BME280;45870;42.528;26.740;2023-02-13T06:45:59;101816.44;;;14.16;26.41
60019;BME280;45870;42.528;26.740;2023-02-13T06:48:24;101827.59;;;14.60;26.42
60019;BME280;45870;42.528;26.740;2023-02-13T06:50:50;101665.03;;;13.24;27.18
60019;BME280;45870;42.528;26.740;2023-02-13T06:53:17;101829.88;;;13.76;26.99
60019;BME280;45870;42.528;26.740;2023-02-13T06:55:50;101767.56;;;14.81;25.65
60019;BME280;45870;42.528;26.740;2023-02-13T06:58:15;101748.53;;;13.29;27.45
60019;BME280;45870;42.528;26.740;2023-02-13T07:00:41;101785.38;;;10.96;32.52
60019;BME280;45870;42.528;26.740;2023-02-13T07:03:07;101821.38;;;9.06;36.20
60019;BME280;45870;42.528;26.740;2023-02-13T07:05:34;101818.81;;;11.39;32.60
60019;BME280;45870;42.528;26.740;2023-02-13T07:07:59;101768.97;;;13.85;28.68
60019;BME280;45870;42.528;26.740;2023-02-13T07:10:25;101815.97;;;15.94;25.13
60019;BME280;45870;42.528;26.740;2023-02-13T07:12:51;101815.53;;;16.67;23.63
60019;BME280;45870;42.528;26.740;2023-02-13T07:15:17;101816.84;;;17.25;21.27
60019;BME280;45870;42.528;26.740;2023-02-13T07:17:43;101816.56;;;16.66;21.94
60019;BME280;45870;42.528;26.740;2023-02-13T07:20:08;101761.47;;;17.00;21.08
60019;BME280;45870;42.528;26.740;2023-02-13T07:22:34;101778.56;;;17.32;20.77
60019;BME280;45870;42.528;26.740;2023-02-13T07:25:00;101819.88;;;18.20;20.54
60019;BME280;45870;42.528;26.740;2023-02-13T07:27:26;101816.50;;;17.76;21.23
60019;BME280;45870;42.528;26.740;2023-02-13T07:29:56;101727.53;;;16.96;21.84
60019;BME280;45870;42.528;26.740;2023-02-13T07:32:23;101804.50;;;16.80;22.87
60019;BME280;45870;42.528;26.740;2023-02-13T07:34:48;101808.81;;;18.15;20.90
60019;BME280;45870;42.528;26.740;2023-02-13T07:37:14;101813.44;;;19.60;18.96
60019;BME280;45870;42.528;26.740;2023-02-13T07:39:40;101805.88;;;19.04;19.44
60019;BME280;45870;42.528;26.740;2023-02-13T07:42:05;101738.31;;;16.41;19.51
60019;BME280;45870;42.528;26.740;2023-02-13T07:44:31;101804.63;;;17.28;20.55
60019;BME280;45870;42.528;26.740;2023-02-13T07:46:57;101808.59;;;13.26;25.03
60019;BME280;45870;42.528;26.740;2023-02-13T07:49:23;101799.53;;;14.33;25.50
60019;BME280;45870;42.528;26.740;2023-02-13T07:51:49;101771.94;;;14.04;26.39
60019;BME280;45870;42.528;26.740;2023-02-13T07:54:15;101789.81;;;13.78;23.80
60019;BME280;45870;42.528;26.740;2023-02-13T07:56:41;101792.63;;;12.82;26.76
60019;BME280;45870;42.528;26.740;2023-02-13T07:59:06;101802.56;;;12.05;28.36
60019;BME280;45870;42.528;26.740;2023-02-13T08:01:32;101810.06;;;11.37;30.06
60019;BME280;45870;42.528;26.740;2023-02-13T08:03:58;101797.28;;;11.46;30.28
60019;BME280;45870;42.528;26.740;2023-02-13T08:06:24;101790.34;;;9.57;34.74
60019;BME280;45870;42.528;26.740;2023-02-13T08:08:49;101797.47;;;9.11;34.06
60019;BME280;45870;42.528;26.740;2023-02-13T08:11:38;101784.84;;;9.11;35.54
60019;BME280;45870;42.528;26.740;2023-02-13T08:14:24;101785.94;;;8.37;36.44
60019;BME280;45870;42.528;26.740;2023-02-13T08:16:51;101627.72;;;6.62;37.93
60019;BME280;45870;42.528;26.740;2023-02-13T08:19:17;101783.84;;;8.96;33.50
60019;BME280;45870;42.528;26.740;2023-02-13T08:21:43;101784.78;;;8.56;35.35
60019;BME280;45870;42.528;26.740;2023-02-13T08:24:09;101746.94;;;8.49;35.81
60019;BME280;45870;42.528;26.740;2023-02-13T08:26:36;101780.59;;;8.29;34.77
60019;BME280;45870;42.528;26.740;2023-02-13T08:29:03;101773.09;;;8.96;32.73
60019;BME280;45870;42.528;26.740;2023-02-13T08:31:29;101764.41;;;8.21;33.33
60019;BME280;45870;42.528;26.740;2023-02-13T08:33:55;101772.09;;;8.97;32.93
60019;BME280;45870;42.528;26.740;2023-02-13T08:36:22;101771.63;;;8.69;32.25
60019;BME280;45870;42.528;26.740;2023-02-13T08:38:47;101776.06;;;10.47;30.26
60019;BME280;45870;42.528;26.740;2023-02-13T08:41:14;101756.63;;;9.61;31.13
60019;BME280;45870;42.528;26.740;2023-02-13T08:43:40;101771.25;;;10.20;29.63
60019;BME280;45870;42.528;26.740;2023-02-13T08:46:06;101732.19;;;11.83;27.32
60019;BME280;45870;42.528;26.740;2023-02-13T08:48:32;101740.66;;;11.44;28.34
60019;BME280;45870;42.528;26.740;2023-02-13T08:50:57;101763.00;;;11.02;25.42
60019;BME280;45870;42.528;26.740;2023-02-13T08:53:23;101763.44;;;12.07;25.61
60019;BME280;45870;42.528;26.740;2023-02-13T08:55:53;101550.53;;;10.44;26.79
60019;BME280;45870;42.528;26.740;2023-02-13T08:58:19;101771.63;;;9.86;30.14
60019;BME280;45870;42.528;26.740;2023-02-13T09:00:45;101717.59;;;11.27;27.53
60019;BME280;45870;42.528;26.740;2023-02-13T09:03:10;101767.00;;;11.21;26.73
60019;BME280;45870;42.528;26.740;2023-02-13T09:05:36;101757.22;;;12.56;26.74
60019;BME280;45870;42.528;26.740;2023-02-13T09:08:02;101765.16;;;11.07;27.21
60019;BME280;45870;42.528;26.740;2023-02-13T09:10:29;101758.78;;;13.33;24.42
60019;BME280;45870;42.528;26.740;2023-02-13T09:12:55;101712.25;;;10.69;27.67
60019;BME280;45870;42.528;26.740;2023-02-13T09:15:21;101753.84;;;11.69;26.71
60019;BME280;45870;42.528;26.740;2023-02-13T09:17:46;101566.25;;;10.91;27.37
60019;BME280;45870;42.528;26.740;2023-02-13T09:20:12;101676.28;;;11.90;26.74
60019;BME280;45870;42.528;26.740;2023-02-13T09:22:39;101741.75;;;12.28;26.83
60019;BME280;45870;42.528;26.740;2023-02-13T09:25:06;101533.72;;;10.99;26.72
60019;BME280;45870;42.528;26.740;2023-02-13T09:27:32;101739.41;;;12.74;25.32
60019;BME280;45870;42.528;26.740;2023-02-13T09:29:59;101668.72;;;10.49;27.93
60019;BME280;45870;42.528;26.740;2023-02-13T09:32:25;101728.28;;;12.90;25.42
60019;BME280;45870;42.528;26.740;2023-02-13T09:34:51;101730.66;;;11.09;28.51
60019;BME280;45870;42.528;26.740;2023-02-13T09:37:17;101719.22;;;12.21;27.26
60019;BME280;45870;42.528;26.740;2023-02-13T09:39:43;101728.16;;;10.64;28.56
60019;BME280;45870;42.528;26.740;2023-02-13T09:42:18;101689.59;;;13.77;24.58
60019;BME280;45870;42.528;26.740;2023-02-13T09:44:47;101725.28;;;12.23;27.34
60019;BME280;45870;42.528;26.740;2023-02-13T09:47:38;101702.38;;;12.26;27.28
60019;BME280;45870;42.528;26.740;2023-02-13T09:52:34;101657.09;;;12.41;26.27
60019;BME280;45870;42.528;26.740;2023-02-13T09:55:01;101684.63;;;13.20;25.79
60019;BME280;45870;42.528;26.740;2023-02-13T09:57:33;101669.13;;;11.47;27.08
60019;BME280;45870;42.528;26.740;2023-02-13T10:08:33;101675.34;;;12.05;28.46
60019;BME280;45870;42.528;26.740;2023-02-13T10:16:20;101654.13;;;11.80;28.80
60019;BME280;45870;42.528;26.740;2023-02-13T10:21:41;101650.69;;;12.83;27.38
60019;BME280;45870;42.528;26.740;2023-02-13T10:24:14;101612.22;;;11.55;28.93
60019;BME280;45870;42.528;26.740;2023-02-13T10:26:43;101630.19;;;12.74;26.36
60019;BME280;45870;42.528;26.740;2023-02-13T10:29:14;101638.41;;;12.87;28.24
60019;BME280;45870;42.528;26.740;2023-02-13T10:32:04;101638.38;;;13.41;27.19
60019;BME280;45870;42.528;26.740;2023-02-13T10:34:36;101636.00;;;11.60;29.50
60019;BME280;45870;42.528;26.740;2023-02-13T10:37:16;101643.56;;;12.41;29.11
60019;BME280;45870;42.528;26.740;2023-02-13T10:39:48;101623.75;;;12.40;28.32
60019;BME280;45870;42.528;26.740;2023-02-13T10:42:19;101627.13;;;12.15;29.14
60019;BME280;45870;42.528;26.740;2023-02-13T10:45:02;101621.41;;;12.31;29.28
60019;BME280;45870;42.528;26.740;2023-02-13T11:04:13;101595.56;;;14.55;26.58
60019;BME280;45870;42.528;26.740;2023-02-13T11:06:49;101597.50;;;14.41;26.39
60019;BME280;45870;42.528;26.740;2023-02-13T11:09:17;101605.72;;;14.79;25.83
60019;BME280;45870;42.528;26.740;2023-02-13T11:11:43;101599.38;;;12.81;28.88
60019;BME280;45870;42.528;26.740;2023-02-13T11:16:42;101596.34;;;13.04;28.77
60019;BME280;45870;42.528;26.740;2023-02-13T11:19:36;101587.72;;;13.74;27.44
60019;BME280;45870;42.528;26.740;2023-02-13T11:22:15;101558.13;;;12.86;28.32
60019;BME280;45870;42.528;26.740;2023-02-13T11:24:54;101533.13;;;14.41;26.01
60019;BME280;45870;42.528;26.740;2023-02-13T11:27:27;101568.88;;;14.32;26.43
60019;BME280;45870;42.528;26.740;2023-02-13T11:29:57;101571.44;;;13.87;27.08
60019;BME280;45870;42.528;26.740;2023-02-13T11:32:25;101525.72;;;13.45;27.77
60019;BME280;45870;42.528;26.740;2023-02-13T11:34:52;101530.38;;;15.55;24.71
60019;BME280;45870;42.528;26.740;2023-02-13T11:37:29;101480.09;;;14.19;25.81
60019;BME280;45870;42.528;26.740;2023-02-13T11:39:58;101555.13;;;13.35;28.13
60019;BME280;45870;42.528;26.740;2023-02-13T11:44:58;101549.09;;;14.69;26.48
60019;BME280;45870;42.528;26.740;2023-02-13T11:47:41;101553.47;;;13.80;27.17
60019;BME280;45870;42.528;26.740;2023-02-13T11:50:25;101535.88;;;14.15;27.39
60019;BME280;45870;42.528;26.740;2023-02-13T11:53:04;101534.28;;;15.34;25.17
60019;BME280;45870;42.528;26.740;2023-02-13T11:55:36;101533.94;;;16.60;23.31
60019;BME280;45870;42.528;26.740;2023-02-13T12:00:41;101527.59;;;13.18;28.25
60019;BME280;45870;42.528;26.740;2023-02-13T12:03:28;101524.84;;;13.05;28.28
60019;BME280;45870;42.528;26.740;2023-02-13T12:06:12;101505.69;;;14.94;25.84
60019;BME280;45870;42.528;26.740;2023-02-13T12:08:40;101502.22;;;15.68;24.90
60019;BME280;45870;42.528;26.740;2023-02-13T12:13:53;101507.97;;;13.62;27.29
60019;BME280;45870;42.528;26.740;2023-02-13T12:16:29;101495.25;;;13.23;28.28
60019;BME280;45870;42.528;26.740;2023-02-13T12:19:00;101488.78;;;13.64;28.01
60019;BME280;45870;42.528;26.740;2023-02-13T12:27:34;101472.06;;;15.87;24.68
60019;BME280;45870;42.528;26.740;2023-02-13T12:38:41;101473.06;;;15.50;25.30
60019;BME280;45870;42.528;26.740;2023-02-13T12:41:27;101438.53;;;16.71;23.92
60019;BME280;45870;42.528;26.740;2023-02-13T12:49:20;101470.66;;;16.99;23.69
60019;BME280;45870;42.528;26.740;2023-02-13T13:12:01;101447.47;;;14.39;27.44
60019;BME280;45870;42.528;26.740;2023-02-13T13:15:04;101445.00;;;14.18;28.20
60019;BME280;45870;42.528;26.740;2023-02-13T13:22:45;101446.22;;;14.73;27.06
60019;BME280;45870;42.528;26.740;2023-02-13T13:27:52;101445.66;;;15.20;26.81
60019;BME280;45870;42.528;26.740;2023-02-13T13:30:26;101437.94;;;16.69;24.63
60019;BME280;45870;42.528;26.740;2023-02-13T13:35:52;101314.31;;;15.56;25.12
60019;BME280;45870;42.528;26.740;2023-02-13T13:38:41;101441.59;;;17.58;23.62
60019;BME280;45870;42.528;26.740;2023-02-13T13:41:37;101414.94;;;15.81;25.25
60019;BME280;45870;42.528;26.740;2023-02-13T13:44:26;101432.50;;;15.17;26.39
60019;BME280;45870;42.528;26.740;2023-02-13T13:49:43;101385.16;;;16.34;25.05
60019;BME280;45870;42.528;26.740;2023-02-13T13:54:49;101392.03;;;19.02;21.89
60019;BME280;45870;42.528;26.740;2023-02-13T14:08:02;101325.91;;;17.75;22.38
60019;BME280;45870;42.528;26.740;2023-02-13T14:13:31;101396.38;;;18.70;21.88
60019;BME280;45870;42.528;26.740;2023-02-13T14:15:57;101408.09;;;19.15;21.24
60019;BME280;45870;42.528;26.740;2023-02-13T14:18:24;101398.94;;;21.69;18.60
60019;BME280;45870;42.528;26.740;2023-02-13T14:20:57;101401.78;;;23.82;16.96
60019;BME280;45870;42.528;26.740;2023-02-13T14:31:20;101400.53;;;19.72;20.56
60019;BME280;45870;42.528;26.740;2023-02-13T14:33:56;101370.16;;;19.57;20.55
60019;BME280;45870;42.528;26.740;2023-02-13T14:36:27;101218.84;;;16.52;22.62
60019;BME280;45870;42.528;26.740;2023-02-13T14:39:03;101397.16;;;18.99;21.24
60019;BME280;45870;42.528;26.740;2023-02-13T14:41:59;101390.81;;;18.08;22.78
60019;BME280;45870;42.528;26.740;2023-02-13T14:44:44;101385.09;;;20.10;20.42
60019;BME280;45870;42.528;26.740;2023-02-13T14:49:51;101352.38;;;18.71;21.00
60019;BME280;45870;42.528;26.740;2023-02-13T14:52:28;101352.53;;;19.48;20.66
60019;BME280;45870;42.528;26.740;2023-02-13T14:55:02;101377.72;;;21.17;19.26
60019;BME280;45870;42.528;26.740;2023-02-13T14:57:33;101378.28;;;22.13;17.93
60019;BME280;45870;42.528;26.740;2023-02-13T15:00:08;101348.09;;;22.33;18.06
60019;BME280;45870;42.528;26.740;2023-02-13T15:02:45;101366.34;;;22.85;17.22
60019;BME280;45870;42.528;26.740;2023-02-13T15:05:14;101370.75;;;22.71;17.52
60019;BME280;45870;42.528;26.740;2023-02-13T15:07:47;101341.22;;;22.36;17.31
60019;BME280;45870;42.528;26.740;2023-02-13T15:13:04;101338.22;;;21.23;18.57
60019;BME280;45870;42.528;26.740;2023-02-13T15:15:33;101370.41;;;21.01;18.93
60019;BME280;45870;42.528;26.740;2023-02-13T15:18:06;101368.44;;;20.38;19.70
60019;BME280;45870;42.528;26.740;2023-02-13T15:20:35;101369.44;;;19.28;21.21
60019;BME280;45870;42.528;26.740;2023-02-13T15:23:03;101349.75;;;18.20;21.87
60019;BME280;45870;42.528;26.740;2023-02-13T15:25:36;101363.94;;;17.30;23.00
60019;BME280;45870;42.528;26.740;2023-02-13T15:28:04;101331.66;;;16.51;24.15
60019;BME280;45870;42.528;26.740;2023-02-13T15:30:32;101362.91;;;16.07;24.98
60019;BME280;45870;42.528;26.740;2023-02-13T15:35:33;101322.94;;;14.85;25.91
60019;BME280;45870;42.528;26.740;2023-02-13T15:38:19;101322.75;;;14.62;26.58
60019;BME280;45870;42.528;26.740;2023-02-13T15:40:45;101302.69;;;14.25;26.91
60019;BME280;45870;42.528;26.740;2023-02-13T15:43:29;101359.06;;;14.30;27.45
60019;BME280;45870;42.528;26.740;2023-02-13T15:46:07;101323.16;;;13.90;27.46
60019;BME280;45870;42.528;26.740;2023-02-13T15:48:43;101224.53;;;13.07;27.84